sensor_id;sensor_type;location;lat;lon;timestamp;pressure;altitude;pressure_sealevel;temperature;humidity
40502;BME280;29631;49.168;9.848;2022-07-06T00:01:51;97151.75;;;23.83;71.30
40502;BME280;29631;49.168;9.848;2022-07-06T00:04:18;97144.75;;;23.77;71.06
40502;BME280;29631;49.168;9.848;2022-07-06T00:06:44;97148.00;;;23.69;71.00
40502;BME280;29631;49.168;9.848;2022-07-06T00:09:10;97144.75;;;23.67;71.26
40502;BME280;29631;49.168;9.848;2022-07-06T00:11:35;97142.63;;;23.59;71.50
40502;BME280;29631;49.168;9.848;2022-07-06T00:14:01;97136.19;;;23.55;71.22
40502;BME280;29631;49.168;9.848;2022-07-06T00:16:27;97140.50;;;23.51;71.49
40502;BME280;29631;49.168;9.848;2022-07-06T00:18:54;97142.13;;;23.52;71.46
40502;BME280;29631;49.168;9.848;2022-07-06T00:21:19;97144.28;;;23.50;71.70
40502;BME280;29631;49.168;9.848;2022-07-06T00:23:45;97136.50;;;23.49;72.07
40502;BME280;29631;49.168;9.848;2022-07-06T00:26:11;97142.16;;;23.42;71.61
40502;BME280;29631;49.168;9.848;2022-07-06T00:28:37;97150.50;;;23.41;71.72
40502;BME280;29631;49.168;9.848;2022-07-06T00:31:02;97127.66;;;23.24;71.38
40502;BME280;29631;49.168;9.848;2022-07-06T00:33:28;97151.59;;;23.35;71.59
40502;BME280;29631;49.168;9.848;2022-07-06T00:35:54;97149.72;;;23.31;71.63
40502;BME280;29631;49.168;9.848;2022-07-06T00:38:21;97150.81;;;23.25;71.62
40502;BME280;29631;49.168;9.848;2022-07-06T00:40:46;97155.63;;;23.23;72.04
40502;BME280;29631;49.168;9.848;2022-07-06T00:43:12;97152.41;;;23.21;71.89
40502;BME280;29631;49.168;9.848;2022-07-06T00:45:38;97153.25;;;23.16;71.77
40502;BME280;29631;49.168;9.848;2022-07-06T00:48:04;97143.56;;;23.10;72.04
40502;BME280;29631;49.168;9.848;2022-07-06T00:50:30;97155.91;;;23.11;72.18
40502;BME280;29631;49.168;9.848;2022-07-06T00:53:05;97152.72;;;23.09;72.68
40502;BME280;29631;49.168;9.848;2022-07-06T00:55:35;97145.44;;;23.05;72.49
40502;BME280;29631;49.168;9.848;2022-07-06T00:58:05;97128.22;;;22.91;72.80
40502;BME280;29631;49.168;9.848;2022-07-06T01:00:33;97147.34;;;23.04;72.65
40502;BME280;29631;49.168;9.848;2022-07-06T01:02:58;97154.59;;;23.04;72.81
40502;BME280;29631;49.168;9.848;2022-07-06T01:05:24;97158.63;;;23.06;72.54
40502;BME280;29631;49.168;9.848;2022-07-06T01:07:52;97161.59;;;23.05;72.80
40502;BME280;29631;49.168;9.848;2022-07-06T01:10:20;97163.72;;;23.08;72.87
40502;BME280;29631;49.168;9.848;2022-07-06T01:12:47;97147.28;;;22.99;72.96
40502;BME280;29631;49.168;9.848;2022-07-06T01:15:19;97155.13;;;23.01;72.84
40502;BME280;29631;49.168;9.848;2022-07-06T01:17:46;97164.00;;;23.06;72.68
40502;BME280;29631;49.168;9.848;2022-07-06T01:20:20;97148.13;;;23.00;73.12
40502;BME280;29631;49.168;9.848;2022-07-06T01:22:49;97155.66;;;23.08;72.70
40502;BME280;29631;49.168;9.848;2022-07-06T01:25:15;97152.97;;;23.03;72.85
40502;BME280;29631;49.168;9.848;2022-07-06T01:27:42;97149.22;;;23.04;72.76
40502;BME280;29631;49.168;9.848;2022-07-06T01:30:14;97156.19;;;23.10;73.03
40502;BME280;29631;49.168;9.848;2022-07-06T01:32:41;97149.22;;;23.04;72.70
40502;BME280;29631;49.168;9.848;2022-07-06T01:35:13;97143.84;;;23.04;73.11
40502;BME280;29631;49.168;9.848;2022-07-06T01:37:40;97156.75;;;23.12;72.82
40502;BME280;29631;49.168;9.848;2022-07-06T01:40:09;97141.41;;;22.97;73.06
40502;BME280;29631;49.168;9.848;2022-07-06T01:42:35;97148.13;;;23.00;72.78
40502;BME280;29631;49.168;9.848;2022-07-06T01:45:03;97143.25;;;22.97;72.95
40502;BME280;29631;49.168;9.848;2022-07-06T01:47:29;97144.34;;;22.96;73.32
40502;BME280;29631;49.168;9.848;2022-07-06T01:49:58;97142.72;;;22.90;72.97
40502;BME280;29631;49.168;9.848;2022-07-06T01:52:25;97135.72;;;22.89;73.16
40502;BME280;29631;49.168;9.848;2022-07-06T01:54:51;97148.94;;;22.90;73.10
40502;BME280;29631;49.168;9.848;2022-07-06T01:57:17;97158.63;;;22.96;73.25
40502;BME280;29631;49.168;9.848;2022-07-06T01:59:42;97144.34;;;22.91;72.96
40502;BME280;29631;49.168;9.848;2022-07-06T02:02:08;97154.56;;;22.89;72.99
40502;BME280;29631;49.168;9.848;2022-07-06T02:04:34;97159.41;;;22.97;72.95
40502;BME280;29631;49.168;9.848;2022-07-06T02:06:59;97140.59;;;22.87;73.10
40502;BME280;29631;49.168;9.848;2022-07-06T02:09:26;97154.03;;;22.92;73.34
40502;BME280;29631;49.168;9.848;2022-07-06T02:11:52;97138.97;;;22.86;72.96
40502;BME280;29631;49.168;9.848;2022-07-06T02:14:18;97143.81;;;22.84;72.98
40502;BME280;29631;49.168;9.848;2022-07-06T02:16:43;97145.72;;;22.83;73.20
40502;BME280;29631;49.168;9.848;2022-07-06T02:19:09;97147.56;;;22.83;73.32
40502;BME280;29631;49.168;9.848;2022-07-06T02:21:35;97150.81;;;22.85;73.43
40502;BME280;29631;49.168;9.848;2022-07-06T02:24:00;97149.47;;;22.87;73.46
40502;BME280;29631;49.168;9.848;2022-07-06T02:26:26;97144.38;;;22.81;73.09
40502;BME280;29631;49.168;9.848;2022-07-06T02:28:52;97156.47;;;22.88;73.53
40502;BME280;29631;49.168;9.848;2022-07-06T02:31:17;97164.25;;;22.90;73.04
40502;BME280;29631;49.168;9.848;2022-07-06T02:33:43;97147.56;;;22.83;73.32
40502;BME280;29631;49.168;9.848;2022-07-06T02:36:09;97157.81;;;22.91;73.28
40502;BME280;29631;49.168;9.848;2022-07-06T02:38:35;97159.94;;;22.84;73.35
40502;BME280;29631;49.168;9.848;2022-07-06T02:41:00;97161.31;;;22.91;73.30
40502;BME280;29631;49.168;9.848;2022-07-06T02:43:26;97170.72;;;22.94;73.22
40502;BME280;29631;49.168;9.848;2022-07-06T02:45:52;97161.84;;;22.88;73.70
40502;BME280;29631;49.168;9.848;2022-07-06T02:48:17;97165.88;;;22.91;73.57
40502;BME280;29631;49.168;9.848;2022-07-06T02:50:47;97146.78;;;22.82;73.40
40502;BME280;29631;49.168;9.848;2022-07-06T02:53:13;97158.59;;;22.86;73.97
40502;BME280;29631;49.168;9.848;2022-07-06T02:55:38;97154.28;;;22.85;73.85
40502;BME280;29631;49.168;9.848;2022-07-06T02:58:04;97155.41;;;22.84;73.90
40502;BME280;29631;49.168;9.848;2022-07-06T03:00:30;97155.41;;;22.84;73.61
40502;BME280;29631;49.168;9.848;2022-07-06T03:02:55;97151.38;;;22.82;73.85
40502;BME280;29631;49.168;9.848;2022-07-06T03:05:21;97155.13;;;22.81;73.71
40502;BME280;29631;49.168;9.848;2022-07-06T03:07:47;97149.75;;;22.81;73.81
40502;BME280;29631;49.168;9.848;2022-07-06T03:10:13;97166.94;;;22.85;73.45
40502;BME280;29631;49.168;9.848;2022-07-06T03:12:39;97162.66;;;22.79;73.71
40502;BME280;29631;49.168;9.848;2022-07-06T03:15:05;97169.91;;;22.83;73.53
40502;BME280;29631;49.168;9.848;2022-07-06T03:17:31;97167.50;;;22.82;74.08
40502;BME280;29631;49.168;9.848;2022-07-06T03:19:57;97177.16;;;22.83;73.83
40502;BME280;29631;49.168;9.848;2022-07-06T03:22:22;97176.63;;;22.81;73.95
40502;BME280;29631;49.168;9.848;2022-07-06T03:24:48;97172.84;;;22.77;73.86
40502;BME280;29631;49.168;9.848;2022-07-06T03:27:15;97163.44;;;22.65;74.20
40502;BME280;29631;49.168;9.848;2022-07-06T03:29:40;97168.00;;;22.64;74.32
40502;BME280;29631;49.168;9.848;2022-07-06T03:32:06;97175.00;;;22.70;73.94
40502;BME280;29631;49.168;9.848;2022-07-06T03:34:32;97179.31;;;22.61;74.31
40502;BME280;29631;49.168;9.848;2022-07-06T03:36:58;97186.81;;;22.64;74.40
40502;BME280;29631;49.168;9.848;2022-07-06T03:39:24;97177.16;;;22.58;74.40
40502;BME280;29631;49.168;9.848;2022-07-06T03:41:49;97172.28;;;22.50;74.54
40502;BME280;29631;49.168;9.848;2022-07-06T03:44:15;97186.28;;;22.57;74.31
40502;BME280;29631;49.168;9.848;2022-07-06T03:46:41;97172.56;;;22.49;74.26
40502;BME280;29631;49.168;9.848;2022-07-06T03:49:07;97189.50;;;22.54;74.42
40502;BME280;29631;49.168;9.848;2022-07-06T03:51:32;97186.00;;;22.49;74.47
40502;BME280;29631;49.168;9.848;2022-07-06T03:53:58;97188.97;;;22.52;74.41
40502;BME280;29631;49.168;9.848;2022-07-06T03:56:24;97198.13;;;22.61;74.50
40502;BME280;29631;49.168;9.848;2022-07-06T03:59:01;97183.06;;;22.55;74.92
40502;BME280;29631;49.168;9.848;2022-07-06T04:01:27;97188.16;;;22.52;75.19
40502;BME280;29631;49.168;9.848;2022-07-06T04:03:53;97200.81;;;22.61;74.77
40502;BME280;29631;49.168;9.848;2022-07-06T04:06:19;97194.88;;;22.54;74.80
40502;BME280;29631;49.168;9.848;2022-07-06T04:08:44;97190.59;;;22.53;74.85
40502;BME280;29631;49.168;9.848;2022-07-06T04:11:10;97203.75;;;22.60;75.11
40502;BME280;29631;49.168;9.848;2022-07-06T04:13:36;97190.81;;;22.47;74.60
40502;BME280;29631;49.168;9.848;2022-07-06T04:16:05;97189.75;;;22.43;74.69
40502;BME280;29631;49.168;9.848;2022-07-06T04:18:31;97211.03;;;22.49;74.96
40502;BME280;29631;49.168;9.848;2022-07-06T04:20:57;97200.22;;;22.44;74.94
40502;BME280;29631;49.168;9.848;2022-07-06T04:23:24;97199.16;;;22.45;74.87
40502;BME280;29631;49.168;9.848;2022-07-06T04:25:49;97204.03;;;22.48;74.82
40502;BME280;29631;49.168;9.848;2022-07-06T04:28:15;97221.22;;;22.52;75.01
40502;BME280;29631;49.168;9.848;2022-07-06T04:30:41;97218.53;;;22.42;74.51
40502;BME280;29631;49.168;9.848;2022-07-06T04:33:07;97227.94;;;22.40;74.94
40502;BME280;29631;49.168;9.848;2022-07-06T04:35:32;97221.72;;;22.34;75.08
40502;BME280;29631;49.168;9.848;2022-07-06T04:37:58;97208.81;;;22.31;75.36
40502;BME280;29631;49.168;9.848;2022-07-06T04:40:24;97232.75;;;22.43;75.24
40502;BME280;29631;49.168;9.848;2022-07-06T04:42:50;97224.69;;;22.43;75.37
40502;BME280;29631;49.168;9.848;2022-07-06T04:45:15;97224.97;;;22.41;75.00
40502;BME280;29631;49.168;9.848;2022-07-06T04:47:41;97241.66;;;22.48;75.22
40502;BME280;29631;49.168;9.848;2022-07-06T04:50:09;97230.63;;;22.45;75.28
40502;BME280;29631;49.168;9.848;2022-07-06T04:52:35;97236.28;;;22.48;75.46
40502;BME280;29631;49.168;9.848;2022-07-06T04:55:01;97234.94;;;22.51;75.50
40502;BME280;29631;49.168;9.848;2022-07-06T04:57:27;97241.41;;;22.60;75.65
40502;BME280;29631;49.168;9.848;2022-07-06T04:59:55;97236.28;;;22.58;76.04
40502;BME280;29631;49.168;9.848;2022-07-06T05:02:20;97243.28;;;22.59;75.90
40502;BME280;29631;49.168;9.848;2022-07-06T05:04:46;97241.94;;;22.62;76.26
40502;BME280;29631;49.168;9.848;2022-07-06T05:07:12;97240.59;;;22.59;75.90
40502;BME280;29631;49.168;9.848;2022-07-06T05:09:38;97251.91;;;22.71;76.13
40502;BME280;29631;49.168;9.848;2022-07-06T05:12:04;97257.28;;;22.71;76.02
40502;BME280;29631;49.168;9.848;2022-07-06T05:14:29;97241.16;;;22.66;75.59
40502;BME280;29631;49.168;9.848;2022-07-06T05:16:55;97246.00;;;22.69;75.54
40502;BME280;29631;49.168;9.848;2022-07-06T05:19:21;97237.94;;;22.69;75.82
40502;BME280;29631;49.168;9.848;2022-07-06T05:21:46;97264.31;;;22.82;75.96
40502;BME280;29631;49.168;9.848;2022-07-06T05:24:12;97257.56;;;22.79;75.30
40502;BME280;29631;49.168;9.848;2022-07-06T05:26:38;97260.81;;;22.86;75.89
40502;BME280;29631;49.168;9.848;2022-07-06T05:29:04;97249.22;;;22.76;75.53
40502;BME280;29631;49.168;9.848;2022-07-06T05:31:29;97254.09;;;22.84;75.47
40502;BME280;29631;49.168;9.848;2022-07-06T05:33:55;97254.38;;;22.87;75.70
40502;BME280;29631;49.168;9.848;2022-07-06T05:36:21;97269.16;;;22.95;75.58
40502;BME280;29631;49.168;9.848;2022-07-06T05:38:46;97255.19;;;22.93;75.71
40502;BME280;29631;49.168;9.848;2022-07-06T05:41:12;97266.53;;;23.05;75.68
40502;BME280;29631;49.168;9.848;2022-07-06T05:43:38;97250.59;;;22.98;75.56
40502;BME280;29631;49.168;9.848;2022-07-06T05:46:04;97260.06;;;23.06;75.48
40502;BME280;29631;49.168;9.848;2022-07-06T05:48:30;97268.69;;;23.18;75.60
40502;BME280;29631;49.168;9.848;2022-07-06T05:51:14;97261.13;;;23.15;75.55
40502;BME280;29631;49.168;9.848;2022-07-06T05:53:40;97269.22;;;23.25;74.94
40502;BME280;29631;49.168;9.848;2022-07-06T05:56:06;97270.84;;;23.26;75.13
40502;BME280;29631;49.168;9.848;2022-07-06T05:58:32;97259.81;;;23.22;75.37
40502;BME280;29631;49.168;9.848;2022-07-06T06:00:57;97261.16;;;23.30;75.43
40502;BME280;29631;49.168;9.848;2022-07-06T06:03:23;97257.38;;;23.31;75.42
40502;BME280;29631;49.168;9.848;2022-07-06T06:05:49;97266.00;;;23.42;75.05
40502;BME280;29631;49.168;9.848;2022-07-06T06:08:15;97268.66;;;23.47;74.95
40502;BME280;29631;49.168;9.848;2022-07-06T06:10:41;97264.63;;;23.45;75.49
40502;BME280;29631;49.168;9.848;2022-07-06T06:13:07;97272.47;;;23.51;74.49
40502;BME280;29631;49.168;9.848;2022-07-06T06:15:34;97268.69;;;23.52;75.02
40502;BME280;29631;49.168;9.848;2022-07-06T06:18:01;97264.38;;;23.51;74.83
40502;BME280;29631;49.168;9.848;2022-07-06T06:20:27;97269.22;;;23.54;75.19
40502;BME280;29631;49.168;9.848;2022-07-06T06:22:57;97277.28;;;23.59;74.84
40502;BME280;29631;49.168;9.848;2022-07-06T06:25:37;97271.34;;;23.62;74.91
40502;BME280;29631;49.168;9.848;2022-07-06T06:28:06;97269.22;;;23.64;74.68
40502;BME280;29631;49.168;9.848;2022-07-06T06:30:32;97277.81;;;23.66;74.80
40502;BME280;29631;49.168;9.848;2022-07-06T06:33:24;97275.66;;;23.68;74.96
40502;BME280;29631;49.168;9.848;2022-07-06T06:35:52;97288.06;;;23.79;75.36
40502;BME280;29631;49.168;9.848;2022-07-06T06:38:21;97280.78;;;23.80;74.58
40502;BME280;29631;49.168;9.848;2022-07-06T06:40:47;97273.50;;;23.80;75.05
40502;BME280;29631;49.168;9.848;2022-07-06T06:43:13;97287.47;;;23.92;74.68
40502;BME280;29631;49.168;9.848;2022-07-06T06:45:39;97271.63;;;23.86;74.75
40502;BME280;29631;49.168;9.848;2022-07-06T06:48:06;97272.16;;;23.93;75.28
40502;BME280;29631;49.168;9.848;2022-07-06T06:50:31;97271.84;;;23.99;75.30
40502;BME280;29631;49.168;9.848;2022-07-06T06:52:57;97284.75;;;24.07;74.95
40502;BME280;29631;49.168;9.848;2022-07-06T06:55:23;97264.81;;;24.08;74.94
40502;BME280;29631;49.168;9.848;2022-07-06T06:57:49;97264.78;;;24.13;74.77
40502;BME280;29631;49.168;9.848;2022-07-06T07:00:15;97270.16;;;24.18;74.94
40502;BME280;29631;49.168;9.848;2022-07-06T07:02:41;97284.16;;;24.30;75.36
40502;BME280;29631;49.168;9.848;2022-07-06T07:05:07;97281.19;;;24.31;74.78
40502;BME280;29631;49.168;9.848;2022-07-06T07:07:34;97273.34;;;24.35;75.13
40502;BME280;29631;49.168;9.848;2022-07-06T07:10:00;97275.47;;;24.38;75.19
40502;BME280;29631;49.168;9.848;2022-07-06T07:12:26;97272.00;;;24.42;75.16
40502;BME280;29631;49.168;9.848;2022-07-06T07:14:52;97265.22;;;24.40;74.74
40502;BME280;29631;49.168;9.848;2022-07-06T07:17:17;97284.59;;;24.57;74.45
40502;BME280;29631;49.168;9.848;2022-07-06T07:19:43;97288.88;;;24.63;74.87
40502;BME280;29631;49.168;9.848;2022-07-06T07:22:09;97279.16;;;24.67;74.17
40502;BME280;29631;49.168;9.848;2022-07-06T07:24:35;97275.91;;;24.65;74.68
40502;BME280;29631;49.168;9.848;2022-07-06T07:27:01;97281.53;;;24.78;74.34
40502;BME280;29631;49.168;9.848;2022-07-06T07:29:27;97269.94;;;24.73;74.71
40502;BME280;29631;49.168;9.848;2022-07-06T07:31:52;97278.53;;;24.80;74.42
40502;BME280;29631;49.168;9.848;2022-07-06T07:34:18;97289.25;;;24.89;74.05
40502;BME280;29631;49.168;9.848;2022-07-06T07:36:44;97295.19;;;24.91;74.19
40502;BME280;29631;49.168;9.848;2022-07-06T07:39:10;97286.56;;;24.89;74.04
40502;BME280;29631;49.168;9.848;2022-07-06T07:41:35;97281.72;;;24.91;74.19
40502;BME280;29631;49.168;9.848;2022-07-06T07:44:01;97283.28;;;24.97;74.05
40502;BME280;29631;49.168;9.848;2022-07-06T07:46:27;97278.13;;;25.01;73.98
40502;BME280;29631;49.168;9.848;2022-07-06T07:48:52;97275.69;;;25.04;73.61
40502;BME280;29631;49.168;9.848;2022-07-06T07:51:18;97266.78;;;25.09;73.97
40502;BME280;29631;49.168;9.848;2022-07-06T07:53:45;97279.34;;;25.23;74.04
40502;BME280;29631;49.168;9.848;2022-07-06T07:56:11;97256.72;;;25.19;73.96
40502;BME280;29631;49.168;9.848;2022-07-06T07:58:36;97258.25;;;25.30;73.85
40502;BME280;29631;49.168;9.848;2022-07-06T08:01:02;97256.06;;;25.32;73.54
40502;BME280;29631;49.168;9.848;2022-07-06T08:03:30;97274.81;;;25.47;73.72
40502;BME280;29631;49.168;9.848;2022-07-06T08:05:57;97256.75;;;25.48;73.29
40502;BME280;29631;49.168;9.848;2022-07-06T08:08:23;97272.56;;;25.59;74.00
40502;BME280;29631;49.168;9.848;2022-07-06T08:10:48;97269.00;;;25.63;73.63
40502;BME280;29631;49.168;9.848;2022-07-06T08:13:14;97275.41;;;25.72;73.33
40502;BME280;29631;49.168;9.848;2022-07-06T08:15:40;97267.31;;;25.72;73.68
40502;BME280;29631;49.168;9.848;2022-07-06T08:18:07;97261.59;;;25.79;73.82
40502;BME280;29631;49.168;9.848;2022-07-06T08:20:35;97251.84;;;25.83;72.94
40502;BME280;29631;49.168;9.848;2022-07-06T08:23:01;97260.13;;;25.91;73.07
40502;BME280;29631;49.168;9.848;2022-07-06T08:25:26;97267.84;;;26.03;72.84
40502;BME280;29631;49.168;9.848;2022-07-06T08:27:52;97271.28;;;26.08;73.48
40502;BME280;29631;49.168;9.848;2022-07-06T08:30:18;97267.16;;;26.16;73.36
40502;BME280;29631;49.168;9.848;2022-07-06T08:32:44;97263.38;;;26.17;72.51
40502;BME280;29631;49.168;9.848;2022-07-06T08:35:11;97259.53;;;26.18;73.02
40502;BME280;29631;49.168;9.848;2022-07-06T08:37:37;97271.28;;;26.32;72.65
40502;BME280;29631;49.168;9.848;2022-07-06T08:40:04;97267.72;;;26.36;72.64
40502;BME280;29631;49.168;9.848;2022-07-06T08:42:33;97266.88;;;26.41;72.86
40502;BME280;29631;49.168;9.848;2022-07-06T08:45:01;97264.09;;;26.45;72.58
40502;BME280;29631;49.168;9.848;2022-07-06T08:47:27;97270.19;;;26.56;72.63
40502;BME280;29631;49.168;9.848;2022-07-06T08:49:54;97267.50;;;26.56;72.16
40502;BME280;29631;49.168;9.848;2022-07-06T08:52:22;97281.69;;;26.66;72.17
40502;BME280;29631;49.168;9.848;2022-07-06T08:54:48;97268.66;;;26.68;72.15
40502;BME280;29631;49.168;9.848;2022-07-06T08:57:14;97271.88;;;26.70;72.23
40502;BME280;29631;49.168;9.848;2022-07-06T08:59:41;97267.44;;;26.79;72.21
40502;BME280;29631;49.168;9.848;2022-07-06T09:02:09;97283.53;;;26.89;72.34
40502;BME280;29631;49.168;9.848;2022-07-06T09:04:36;97267.28;;;26.89;71.99
40502;BME280;29631;49.168;9.848;2022-07-06T09:07:02;97262.25;;;27.01;72.59
40502;BME280;29631;49.168;9.848;2022-07-06T09:09:30;97266.94;;;27.14;72.26
40502;BME280;29631;49.168;9.848;2022-07-06T09:11:59;97270.16;;;27.16;72.21
40502;BME280;29631;49.168;9.848;2022-07-06T09:14:24;97258.25;;;27.17;72.36
40502;BME280;29631;49.168;9.848;2022-07-06T09:17:04;97284.19;;;27.36;72.03
40502;BME280;29631;49.168;9.848;2022-07-06T09:19:34;97268.25;;;27.35;71.96
40502;BME280;29631;49.168;9.848;2022-07-06T09:22:01;97261.72;;;27.36;71.60
40502;BME280;29631;49.168;9.848;2022-07-06T09:24:27;97265.97;;;27.42;71.80
40502;BME280;29631;49.168;9.848;2022-07-06T09:26:58;97271.81;;;27.49;71.32
40502;BME280;29631;49.168;9.848;2022-07-06T09:29:31;97267.59;;;27.56;71.72
40502;BME280;29631;49.168;9.848;2022-07-06T09:31:59;97266.81;;;27.56;71.45
40502;BME280;29631;49.168;9.848;2022-07-06T09:34:39;97289.66;;;27.68;71.38
40502;BME280;29631;49.168;9.848;2022-07-06T09:37:06;97286.34;;;27.71;71.45
40502;BME280;29631;49.168;9.848;2022-07-06T09:39:32;97289.28;;;27.75;71.15
40502;BME280;29631;49.168;9.848;2022-07-06T09:42:00;97289.38;;;27.70;70.82
40502;BME280;29631;49.168;9.848;2022-07-06T09:44:35;97286.16;;;27.68;70.87
40502;BME280;29631;49.168;9.848;2022-07-06T09:47:07;97285.47;;;27.76;70.64
40502;BME280;29631;49.168;9.848;2022-07-06T09:49:34;97282.84;;;27.71;70.58
40502;BME280;29631;49.168;9.848;2022-07-06T09:52:07;97284.94;;;27.74;70.33
40502;BME280;29631;49.168;9.848;2022-07-06T09:54:34;97278.63;;;27.65;70.67
40502;BME280;29631;49.168;9.848;2022-07-06T09:57:01;97289.19;;;27.80;70.79
40502;BME280;29631;49.168;9.848;2022-07-06T09:59:29;97286.16;;;27.81;70.32
40502;BME280;29631;49.168;9.848;2022-07-06T10:02:05;97287.72;;;27.87;70.92
40502;BME280;29631;49.168;9.848;2022-07-06T10:04:31;97304.50;;;28.02;70.46
40502;BME280;29631;49.168;9.848;2022-07-06T10:06:58;97296.84;;;28.04;70.76
40502;BME280;29631;49.168;9.848;2022-07-06T10:09:27;97287.84;;;28.09;70.32
40502;BME280;29631;49.168;9.848;2022-07-06T10:11:55;97284.59;;;28.07;70.52
40502;BME280;29631;49.168;9.848;2022-07-06T10:14:28;97283.22;;;28.09;70.41
40502;BME280;29631;49.168;9.848;2022-07-06T10:17:00;97287.25;;;28.12;69.91
40502;BME280;29631;49.168;9.848;2022-07-06T10:19:28;97269.84;;;27.99;70.20
40502;BME280;29631;49.168;9.848;2022-07-06T10:22:00;97303.56;;;28.25;70.54
40502;BME280;29631;49.168;9.848;2022-07-06T10:24:28;97303.56;;;28.25;69.89
40502;BME280;29631;49.168;9.848;2022-07-06T10:26:55;97284.66;;;28.20;69.74
40502;BME280;29631;49.168;9.848;2022-07-06T10:29:21;97296.38;;;28.16;69.70
40502;BME280;29631;49.168;9.848;2022-07-06T10:31:48;97302.56;;;28.21;69.64
40502;BME280;29631;49.168;9.848;2022-07-06T10:34:16;97293.13;;;28.19;69.06
40502;BME280;29631;49.168;9.848;2022-07-06T10:36:46;97294.91;;;28.23;69.05
40502;BME280;29631;49.168;9.848;2022-07-06T10:39:13;97302.34;;;28.31;68.94
40502;BME280;29631;49.168;9.848;2022-07-06T10:41:58;97296.50;;;28.24;69.31
40502;BME280;29631;49.168;9.848;2022-07-06T10:44:26;97295.31;;;28.30;69.45
40502;BME280;29631;49.168;9.848;2022-07-06T10:46:57;97284.03;;;28.23;68.93
40502;BME280;29631;49.168;9.848;2022-07-06T10:49:26;97293.91;;;28.33;69.08
40502;BME280;29631;49.168;9.848;2022-07-06T10:51:52;97293.41;;;28.31;68.86
40502;BME280;29631;49.168;9.848;2022-07-06T10:54:20;97306.97;;;28.31;69.15
40502;BME280;29631;49.168;9.848;2022-07-06T10:56:50;97292.13;;;28.28;68.90
40502;BME280;29631;49.168;9.848;2022-07-06T10:59:19;97296.91;;;28.31;69.32
40502;BME280;29631;49.168;9.848;2022-07-06T11:02:12;97292.13;;;28.28;69.08
40502;BME280;29631;49.168;9.848;2022-07-06T11:04:47;97294.50;;;28.30;68.99
40502;BME280;29631;49.168;9.848;2022-07-06T11:07:19;97290.28;;;28.24;68.67
40502;BME280;29631;49.168;9.848;2022-07-06T11:09:59;97284.03;;;28.23;68.57
40502;BME280;29631;49.168;9.848;2022-07-06T11:12:26;97277.13;;;28.31;68.76
40502;BME280;29631;49.168;9.848;2022-07-06T11:14:52;97276.72;;;28.37;68.91
40502;BME280;29631;49.168;9.848;2022-07-06T11:17:19;97279.03;;;28.44;69.02
40502;BME280;29631;49.168;9.848;2022-07-06T11:19:57;97299.94;;;28.57;68.92
40502;BME280;29631;49.168;9.848;2022-07-06T11:22:24;97283.78;;;28.52;68.74
40502;BME280;29631;49.168;9.848;2022-07-06T11:24:52;97290.19;;;28.56;68.93
40502;BME280;29631;49.168;9.848;2022-07-06T11:27:19;97283.47;;;28.53;68.81
40502;BME280;29631;49.168;9.848;2022-07-06T11:29:47;97280.75;;;28.53;68.82
40502;BME280;29631;49.168;9.848;2022-07-06T11:32:13;97293.09;;;28.59;68.87
40502;BME280;29631;49.168;9.848;2022-07-06T11:34:44;97275.19;;;28.58;68.13
40502;BME280;29631;49.168;9.848;2022-07-06T11:37:14;97285.34;;;28.66;68.39
40502;BME280;29631;49.168;9.848;2022-07-06T11:39:46;97286.06;;;28.58;67.87
40502;BME280;29631;49.168;9.848;2022-07-06T11:42:14;97279.84;;;28.58;68.41
40502;BME280;29631;49.168;9.848;2022-07-06T11:44:41;97281.41;;;28.59;68.03
40502;BME280;29631;49.168;9.848;2022-07-06T11:47:10;97281.63;;;28.62;67.69
40502;BME280;29631;49.168;9.848;2022-07-06T11:49:38;97270.97;;;28.65;68.03
40502;BME280;29631;49.168;9.848;2022-07-06T11:52:12;97278.41;;;28.73;68.02
40502;BME280;29631;49.168;9.848;2022-07-06T11:54:39;97273.38;;;28.80;68.55
40502;BME280;29631;49.168;9.848;2022-07-06T11:57:08;97265.75;;;28.82;68.39
40502;BME280;29631;49.168;9.848;2022-07-06T11:59:37;97261.31;;;28.86;68.44
40502;BME280;29631;49.168;9.848;2022-07-06T12:02:12;97261.50;;;28.90;68.04
40502;BME280;29631;49.168;9.848;2022-07-06T12:04:44;97273.53;;;28.97;67.83
40502;BME280;29631;49.168;9.848;2022-07-06T12:07:16;97270.16;;;28.92;67.81
40502;BME280;29631;49.168;9.848;2022-07-06T12:09:45;97266.53;;;28.96;67.64
40502;BME280;29631;49.168;9.848;2022-07-06T12:12:13;97262.88;;;29.01;68.07
40502;BME280;29631;49.168;9.848;2022-07-06T12:14:41;97264.16;;;29.03;67.65
40502;BME280;29631;49.168;9.848;2022-07-06T12:17:12;97253.59;;;29.02;67.06
40502;BME280;29631;49.168;9.848;2022-07-06T12:19:39;97263.69;;;29.01;66.56
40502;BME280;29631;49.168;9.848;2022-07-06T12:22:06;97260.47;;;28.99;67.23
40502;BME280;29631;49.168;9.848;2022-07-06T12:24:35;97256.31;;;29.02;66.54
40502;BME280;29631;49.168;9.848;2022-07-06T12:27:18;97256.19;;;29.07;67.03
40502;BME280;29631;49.168;9.848;2022-07-06T12:29:44;97245.13;;;29.03;67.76
40502;BME280;29631;49.168;9.848;2022-07-06T12:32:20;97245.03;;;29.08;66.88
40502;BME280;29631;49.168;9.848;2022-07-06T12:34:56;97251.16;;;29.14;67.31
40502;BME280;29631;49.168;9.848;2022-07-06T12:37:27;97241.41;;;29.13;66.68
40502;BME280;29631;49.168;9.848;2022-07-06T12:39:52;97248.34;;;29.19;65.92
40502;BME280;29631;49.168;9.848;2022-07-06T12:42:18;97256.03;;;29.25;66.76
40502;BME280;29631;49.168;9.848;2022-07-06T12:44:50;97228.44;;;29.10;66.28
40502;BME280;29631;49.168;9.848;2022-07-06T12:47:24;97214.97;;;29.05;66.22
40502;BME280;29631;49.168;9.848;2022-07-06T12:50:06;97238.44;;;29.23;67.13
40502;BME280;29631;49.168;9.848;2022-07-06T12:52:33;97226.88;;;29.17;67.11
40502;BME280;29631;49.168;9.848;2022-07-06T12:55:00;97239.41;;;29.27;66.27
40502;BME280;29631;49.168;9.848;2022-07-06T12:57:26;97233.38;;;29.30;66.47
40502;BME280;29631;49.168;9.848;2022-07-06T13:02:34;97222.91;;;29.37;66.58
40502;BME280;29631;49.168;9.848;2022-07-06T13:05:14;97241.19;;;29.44;66.48